Time;durP1;ratioP1;P1;durP2;ratioP2;P2;SDS_P1;SDS_P2;PMS_P1;PMS_P2;Temp;Humidity;BMP_temperature;BMP_pressure;BME280_temperature;BME280_humidity;BME280_pressure;Samples;Min_cycle;Max_cycle;Signal;HPM_P1;HPM_P2
2023/08/10 00:00:15;;;;;;;3.55;2.53;;;17.40;99.90;;;;;;5033532;28;20084;-83
2023/08/10 00:02:42;;;;;;;4.72;2.60;;;17.40;99.90;;;;;;5033108;28;20056;-83
2023/08/10 00:05:08;;;;;;;5.70;2.45;;;17.40;99.90;;;;;;5032757;28;20470;-82
2023/08/10 00:07:36;;;;;;;3.08;2.67;;;17.40;99.90;;;;;;5033268;28;20029;-82
2023/08/10 00:10:03;;;;;;;3.55;2.45;;;17.30;99.90;;;;;;5033351;28;20028;-82
2023/08/10 00:12:29;;;;;;;3.17;2.88;;;17.40;99.90;;;;;;5032304;28;20021;-82
2023/08/10 00:14:55;;;;;;;4.97;3.13;;;17.40;99.90;;;;;;5033033;28;20551;-82
2023/08/10 00:17:20;;;;;;;3.03;2.58;;;17.40;99.90;;;;;;5031975;28;20108;-82
2023/08/10 00:19:46;;;;;;;4.35;2.88;;;17.60;99.90;;;;;;5032491;28;20024;-82
2023/08/10 00:22:13;;;;;;;6.60;3.08;;;17.40;99.90;;;;;;5033169;28;20025;-82
2023/08/10 00:24:38;;;;;;;2.65;2.33;;;17.40;99.90;;;;;;5032399;28;20072;-83
2023/08/10 00:27:06;;;;;;;4.15;2.50;;;17.40;99.90;;;;;;5032848;28;20492;-82
2023/08/10 00:29:32;;;;;;;6.10;2.97;;;17.40;99.90;;;;;;5032526;28;20489;-81
2023/08/10 00:31:58;;;;;;;4.80;3.05;;;17.40;99.90;;;;;;5032143;28;20029;-82
2023/08/10 00:34:23;;;;;;;7.63;3.95;;;17.40;99.90;;;;;;5032772;28;20040;-82
2023/08/10 00:36:49;;;;;;;6.13;2.85;;;17.30;99.90;;;;;;5032451;28;20032;-82
2023/08/10 00:39:14;;;;;;;4.65;3.10;;;17.30;99.90;;;;;;5031991;28;20067;-82
2023/08/10 00:41:41;;;;;;;6.00;2.85;;;17.30;99.90;;;;;;5032206;28;20489;-82
2023/08/10 00:44:07;;;;;;;3.85;2.60;;;17.30;99.90;;;;;;5032442;28;20030;-82
2023/08/10 00:46:32;;;;;;;4.70;3.28;;;17.40;99.90;;;;;;5031532;28;20030;-82
2023/08/10 00:48:58;;;;;;;4.60;2.90;;;17.40;99.90;;;;;;5032289;28;20028;-82
2023/08/10 00:51:24;;;;;;;6.47;3.40;;;17.30;99.90;;;;;;5032336;28;20041;-82
2023/08/10 00:53:50;;;;;;;4.05;3.03;;;17.30;99.90;;;;;;5031330;28;20026;-82
2023/08/10 00:56:17;;;;;;;6.15;3.13;;;17.10;99.90;;;;;;5032321;28;20026;-82
2023/08/10 00:58:42;;;;;;;6.22;2.83;;;17.20;99.90;;;;;;5031856;28;20022;-82
2023/08/10 01:01:08;;;;;;;7.45;3.47;;;17.20;99.90;;;;;;5031804;28;20044;-82
2023/08/10 01:03:34;;;;;;;10.85;3.63;;;17.20;99.90;;;;;;5032253;28;20400;-81
2023/08/10 01:06:00;;;;;;;7.20;3.72;;;17.30;99.90;;;;;;5032165;28;20036;-82
2023/08/10 01:08:38;;;;;;;3.65;3.33;;;17.10;99.90;;;;;;5031470;28;20027;-82
2023/08/10 01:11:19;;;;;;;5.13;3.42;;;17.00;99.90;;;;;;5032191;28;20048;-82
2023/08/10 01:13:53;;;;;;;5.13;3.65;;;17.00;99.90;;;;;;5031211;28;20464;-82
2023/08/10 01:16:21;;;;;;;4.05;2.85;;;17.00;99.90;;;;;;5032097;28;20120;-82
2023/08/10 01:18:48;;;;;;;6.80;3.53;;;17.00;99.90;;;;;;5031818;28;20101;-82
2023/08/10 01:21:29;;;;;;;4.28;3.58;;;17.00;99.90;;;;;;5031465;28;20068;-82
2023/08/10 01:24:00;;;;;;;4.43;2.72;;;17.00;99.90;;;;;;5032332;28;20467;-82
2023/08/10 01:26:27;;;;;;;4.90;3.20;;;17.00;99.90;;;;;;5032420;28;20033;-82
2023/08/10 01:28:54;;;;;;;4.88;3.08;;;17.00;99.90;;;;;;5030964;28;20021;-82
2023/08/10 01:31:19;;;;;;;5.80;3.13;;;17.00;99.90;;;;;;5031754;28;20029;-82
2023/08/10 01:33:45;;;;;;;4.50;3.35;;;17.00;99.90;;;;;;5031489;28;20028;-82
2023/08/10 01:36:10;;;;;;;5.10;3.30;;;17.00;99.90;;;;;;5030880;28;20084;-81
2023/08/10 01:38:36;;;;;;;5.68;3.17;;;16.90;99.90;;;;;;5031422;28;20025;-82
2023/08/10 01:41:02;;;;;;;7.30;3.40;;;16.90;99.90;;;;;;5031877;28;20132;-82
2023/08/10 01:43:27;;;;;;;3.13;2.78;;;16.90;99.90;;;;;;5031190;28;20017;-81
2023/08/10 01:45:55;;;;;;;5.72;3.65;;;16.90;99.90;;;;;;5031665;28;20030;-82
2023/08/10 01:48:26;;;;;;;4.55;2.95;;;16.90;99.90;;;;;;5032057;28;20026;-82
2023/08/10 01:50:53;;;;;;;8.90;3.13;;;16.90;99.90;;;;;;5030525;28;20025;-82
2023/08/10 01:53:26;;;;;;;3.13;2.63;;;16.90;99.90;;;;;;5032048;28;20034;-82
2023/08/10 01:55:52;;;;;;;4.13;2.80;;;16.90;99.90;;;;;;5030708;28;20032;-82
2023/08/10 01:58:18;;;;;;;6.25;3.13;;;16.90;99.90;;;;;;5032556;28;20436;-82
2023/08/10 02:00:44;;;;;;;3.95;3.05;;;16.90;99.90;;;;;;5031138;28;20489;-82
2023/08/10 02:03:10;;;;;;;11.13;4.15;;;16.90;99.90;;;;;;5030879;28;20030;-82
2023/08/10 02:05:36;;;;;;;4.03;2.78;;;16.80;99.90;;;;;;5031208;28;20017;-82
2023/08/10 02:08:01;;;;;;;3.95;2.95;;;17.10;99.90;;;;;;5031397;28;20034;-82
2023/08/10 02:10:27;;;;;;;8.00;3.00;;;16.90;99.90;;;;;;5031028;28;20030;-82
2023/08/10 02:12:52;;;;;;;4.53;2.85;;;16.80;99.90;;;;;;5031304;28;20112;-82
2023/08/10 02:15:18;;;;;;;10.80;3.78;;;16.80;99.90;;;;;;5031681;28;20021;-82
2023/08/10 02:17:44;;;;;;;4.82;3.40;;;16.80;99.90;;;;;;5030519;28;20540;-82
2023/08/10 02:20:13;;;;;;;3.38;3.08;;;16.80;99.90;;;;;;5031392;28;20033;-81
2023/08/10 02:22:46;;;;;;;3.30;2.97;;;16.80;99.90;;;;;;5031414;28;20060;-83
2023/08/10 02:25:12;;;;;;;5.22;3.95;;;16.80;99.90;;;;;;5030815;28;20026;-82
2023/08/10 02:27:41;;;;;;;5.05;3.40;;;16.80;99.90;;;;;;5031343;28;20021;-83
2023/08/10 02:30:08;;;;;;;4.18;3.78;;;16.80;99.90;;;;;;5031484;28;20018;-83
2023/08/10 02:32:34;;;;;;;4.80;3.38;;;16.80;99.90;;;;;;5030481;28;20026;-82
2023/08/10 02:35:00;;;;;;;5.70;3.90;;;16.80;99.90;;;;;;5031408;28;20050;-82
2023/08/10 02:37:26;;;;;;;5.30;3.55;;;16.80;99.90;;;;;;5031703;28;20087;-83
2023/08/10 02:39:51;;;;;;;7.95;3.60;;;16.80;99.90;;;;;;5030371;28;20473;-83
2023/08/10 02:42:17;;;;;;;3.80;3.45;;;16.80;99.90;;;;;;5034800;28;20087;-82
2023/08/10 02:44:46;;;;;;;4.32;3.00;;;16.80;99.90;;;;;;5034594;28;20033;-82
2023/08/10 02:47:12;;;;;;;5.10;3.22;;;16.90;99.90;;;;;;5034314;28;20025;-82
2023/08/10 02:49:38;;;;;;;5.15;2.95;;;16.80;99.90;;;;;;5034718;28;20025;-82
2023/08/10 02:52:05;;;;;;;8.75;3.30;;;16.80;99.90;;;;;;5034109;28;20535;-82
2023/08/10 02:54:30;;;;;;;3.78;2.63;;;16.80;99.90;;;;;;5034657;28;20029;-82
2023/08/10 02:56:56;;;;;;;3.17;2.58;;;16.90;99.90;;;;;;5034584;28;20516;-82
2023/08/10 02:59:21;;;;;;;4.43;3.33;;;16.80;99.90;;;;;;5033905;28;20368;-82
2023/08/10 03:01:47;;;;;;;4.03;3.25;;;16.80;99.90;;;;;;5034094;28;20116;-82
2023/08/10 03:04:13;;;;;;;3.10;2.80;;;16.90;99.90;;;;;;5034856;28;20029;-82
2023/08/10 03:06:39;;;;;;;6.65;3.58;;;16.80;99.90;;;;;;5033588;28;20477;-82
2023/08/10 03:09:06;;;;;;;6.20;3.80;;;16.80;99.90;;;;;;5034240;28;20485;-81
2023/08/10 03:11:32;;;;;;;4.53;4.05;;;16.80;99.90;;;;;;5034073;28;20531;-82
2023/08/10 03:13:57;;;;;;;9.93;3.58;;;17.00;99.90;;;;;;5033399;28;20029;-82
2023/08/10 03:16:23;;;;;;;6.15;4.03;;;16.80;99.90;;;;;;5034125;28;20036;-82
2023/08/10 03:18:49;;;;;;;6.75;4.15;;;16.90;99.90;;;;;;5033668;28;20022;-82
2023/08/10 03:21:15;;;;;;;3.92;3.55;;;16.80;99.90;;;;;;5033301;28;20033;-82
2023/08/10 03:23:41;;;;;;;4.55;4.03;;;16.80;99.90;;;;;;5033834;28;20018;-82
2023/08/10 03:26:06;;;;;;;7.00;3.97;;;16.80;99.90;;;;;;5034006;28;20037;-82
2023/08/10 03:28:32;;;;;;;4.85;4.43;;;16.80;99.90;;;;;;5033067;28;20022;-82
2023/08/10 03:30:57;;;;;;;5.07;4.32;;;16.80;99.90;;;;;;5033778;28;20401;-82
2023/08/10 03:33:23;;;;;;;6.93;4.03;;;16.80;99.90;;;;;;5034230;28;20025;-82
2023/08/10 03:35:49;;;;;;;4.53;4.13;;;16.80;99.90;;;;;;5032754;28;20098;-82
2023/08/10 03:38:15;;;;;;;8.63;4.63;;;16.80;99.90;;;;;;5033801;28;20447;-82
2023/08/10 03:40:40;;;;;;;3.53;3.22;;;17.30;99.90;;;;;;5033083;28;20113;-82
2023/08/10 03:43:06;;;;;;;6.95;3.95;;;16.80;99.90;;;;;;5032865;28;20465;-82
2023/08/10 03:45:31;;;;;;;4.15;3.85;;;16.80;99.90;;;;;;5033272;28;20025;-82
2023/08/10 03:47:57;;;;;;;5.82;4.32;;;16.80;99.90;;;;;;5033683;28;20029;-82
2023/08/10 03:50:22;;;;;;;4.30;3.90;;;16.80;99.90;;;;;;5032917;28;20025;-82
2023/08/10 03:52:48;;;;;;;5.07;4.20;;;16.70;99.90;;;;;;5031986;28;20030;-82
2023/08/10 03:55:14;;;;;;;9.15;4.60;;;16.80;99.90;;;;;;5034046;28;20101;-82
2023/08/10 03:57:41;;;;;;;5.70;4.70;;;17.70;99.90;;;;;;5032410;28;20420;-82
2023/08/10 04:00:08;;;;;;;5.00;4.30;;;16.80;99.90;;;;;;5033283;28;20418;-81
2023/08/10 04:02:33;;;;;;;5.97;5.38;;;16.90;99.90;;;;;;5032406;28;20033;-82
2023/08/10 04:05:01;;;;;;;8.10;4.88;;;16.90;99.90;;;;;;5033364;28;20488;-82
2023/08/10 04:07:27;;;;;;;6.10;4.40;;;16.90;99.90;;;;;;5033398;28;20037;-82
2023/08/10 04:09:52;;;;;;;7.32;5.22;;;16.90;99.90;;;;;;5032085;28;20079;-82
2023/08/10 04:12:18;;;;;;;5.35;4.55;;;17.10;99.90;;;;;;5033167;28;20113;-82
2023/08/10 04:14:44;;;;;;;9.20;4.53;;;16.90;99.90;;;;;;5032730;28;20055;-82
2023/08/10 04:17:09;;;;;;;4.70;4.30;;;16.90;99.90;;;;;;5032652;28;20021;-81
2023/08/10 04:19:35;;;;;;;6.18;4.97;;;16.90;99.90;;;;;;5033332;28;20381;-82
2023/08/10 04:22:01;;;;;;;5.55;4.80;;;16.90;99.90;;;;;;5033076;28;20033;-82
2023/08/10 04:24:26;;;;;;;5.93;4.90;;;16.90;99.90;;;;;;5032262;28;20462;-82
2023/08/10 04:26:52;;;;;;;7.80;5.00;;;16.90;99.90;;;;;;5032577;28;20036;-82
2023/08/10 04:29:18;;;;;;;11.38;5.95;;;16.90;99.90;;;;;;5032795;28;20021;-82
2023/08/10 04:31:43;;;;;;;7.22;5.03;;;16.80;99.90;;;;;;5031781;28;20029;-82
2023/08/10 04:34:09;;;;;;;10.02;4.78;;;16.90;99.90;;;;;;5032847;28;20112;-82
2023/08/10 04:36:34;;;;;;;7.47;5.55;;;17.30;99.90;;;;;;5032488;28;20421;-82
2023/08/10 04:39:01;;;;;;;8.75;5.13;;;16.90;99.90;;;;;;5031738;28;20373;-82
2023/08/10 04:41:26;;;;;;;6.75;4.50;;;16.90;99.90;;;;;;5032693;28;20068;-82
2023/08/10 04:43:52;;;;;;;5.55;4.93;;;16.90;99.90;;;;;;5032718;28;20079;-82
2023/08/10 04:46:18;;;;;;;5.68;5.00;;;17.00;99.90;;;;;;5032127;28;20037;-82
2023/08/10 04:48:43;;;;;;;9.88;5.95;;;17.00;99.90;;;;;;5032312;28;20021;-82
2023/08/10 04:51:09;;;;;;;5.50;5.00;;;16.90;99.90;;;;;;5032470;28;20056;-82
2023/08/10 04:53:34;;;;;;;6.85;4.90;;;16.90;99.90;;;;;;5031544;28;20060;-82
2023/08/10 04:56:00;;;;;;;5.88;5.22;;;16.90;99.90;;;;;;5032155;28;20426;-82
2023/08/10 04:58:26;;;;;;;7.22;4.97;;;17.00;99.90;;;;;;5032331;28;20033;-82
2023/08/10 05:00:55;;;;;;;8.65;4.93;;;17.00;99.90;;;;;;5031312;28;20033;-82
2023/08/10 05:03:20;;;;;;;6.90;5.28;;;16.90;99.90;;;;;;5031968;28;20469;-82
2023/08/10 05:05:46;;;;;;;8.43;5.78;;;17.00;99.90;;;;;;5031752;28;20036;-82
2023/08/10 05:08:12;;;;;;;5.50;5.00;;;17.00;99.90;;;;;;5032267;28;20021;-82
2023/08/10 05:10:38;;;;;;;7.18;5.13;;;17.00;99.90;;;;;;5031821;28;20430;-82
2023/08/10 05:13:04;;;;;;;5.88;5.03;;;17.00;99.90;;;;;;5031530;28;20560;-82
2023/08/10 05:15:30;;;;;;;6.93;5.22;;;17.00;99.90;;;;;;5032269;28;20024;-82
2023/08/10 05:17:56;;;;;;;4.93;4.53;;;17.30;99.90;;;;;;5031907;28;20033;-82
2023/08/10 05:20:21;;;;;;;6.72;5.50;;;17.00;99.90;;;;;;5031638;28;20036;-82
2023/08/10 05:22:49;;;;;;;6.88;5.25;;;17.00;99.90;;;;;;5031886;28;20033;-82
2023/08/10 05:25:14;;;;;;;6.28;4.75;;;16.90;99.90;;;;;;5032134;28;20021;-82
2023/08/10 05:27:40;;;;;;;5.75;5.15;;;16.90;99.90;;;;;;5030820;28;20079;-82
2023/08/10 05:30:08;;;;;;;6.00;5.38;;;16.90;99.90;;;;;;5032010;28;20429;-82
2023/08/10 05:32:36;;;;;;;6.20;5.15;;;16.90;99.90;;;;;;5031882;28;20052;-82
2023/08/10 05:35:02;;;;;;;8.43;5.68;;;16.90;99.90;;;;;;5030813;28;20048;-82
2023/08/10 05:37:28;;;;;;;6.15;5.65;;;16.90;99.90;;;;;;5031884;28;20033;-82
2023/08/10 05:39:53;;;;;;;6.82;5.25;;;17.00;99.90;;;;;;5031443;28;20075;-82
2023/08/10 05:42:19;;;;;;;7.55;5.10;;;17.00;99.90;;;;;;5031210;28;20426;-82
2023/08/10 05:44:45;;;;;;;6.05;5.25;;;17.00;99.90;;;;;;5031729;28;20519;-82
2023/08/10 05:47:11;;;;;;;6.35;5.20;;;17.00;99.90;;;;;;5031746;28;20040;-82
2023/08/10 05:49:37;;;;;;;5.75;4.78;;;17.00;99.90;;;;;;5030761;28;20025;-82
2023/08/10 05:52:03;;;;;;;6.03;5.13;;;17.00;99.90;;;;;;5031735;28;20573;-82
2023/08/10 05:54:29;;;;;;;7.20;6.50;;;16.90;99.90;;;;;;5031428;28;20412;-82
2023/08/10 05:56:55;;;;;;;9.50;5.97;;;17.00;99.90;;;;;;5030597;28;20465;-82
2023/08/10 05:59:20;;;;;;;5.75;4.65;;;17.00;99.90;;;;;;5031958;28;20102;-82
2023/08/10 06:01:47;;;;;;;5.20;4.65;;;17.00;99.90;;;;;;5031382;28;20473;-82
2023/08/10 06:04:14;;;;;;;7.90;5.20;;;17.00;99.90;;;;;;5030932;28;20144;-82
2023/08/10 06:06:40;;;;;;;4.95;4.55;;;17.00;99.90;;;;;;5031208;28;20030;-83
2023/08/10 06:09:07;;;;;;;5.18;4.68;;;17.10;99.90;;;;;;5030914;28;20037;-83
2023/08/10 06:11:33;;;;;;;5.50;5.00;;;17.10;99.90;;;;;;5031346;28;20034;-83
2023/08/10 06:13:59;;;;;;;6.80;5.15;;;17.10;99.90;;;;;;5031584;28;20104;-80
2023/08/10 06:16:25;;;;;;;6.75;4.68;;;17.10;99.90;;;;;;5033442;28;20021;-83
2023/08/10 06:18:51;;;;;;;6.65;5.30;;;17.10;99.90;;;;;;5035630;28;20029;-80
2023/08/10 06:21:18;;;;;;;8.98;6.07;;;17.10;99.90;;;;;;5041698;28;20045;-83
2023/08/10 06:23:44;;;;;;;6.18;5.45;;;17.20;99.90;;;;;;5039370;28;20026;-82
2023/08/10 06:26:11;;;;;;;7.15;5.65;;;17.20;99.90;;;;;;5035322;28;20025;-83
2023/08/10 06:28:36;;;;;;;8.43;4.57;;;17.20;99.90;;;;;;5034513;28;20389;-82
2023/08/10 06:31:02;;;;;;;6.60;5.47;;;17.30;99.90;;;;;;5034249;28;20021;-82
2023/08/10 06:33:28;;;;;;;9.38;5.97;;;17.30;99.90;;;;;;5035044;28;20103;-82
2023/08/10 06:35:54;;;;;;;6.72;5.60;;;17.30;99.90;;;;;;5034429;28;20550;-82
2023/08/10 06:38:20;;;;;;;7.90;6.03;;;17.30;99.90;;;;;;5033953;28;20022;-82
2023/08/10 06:40:45;;;;;;;10.15;5.82;;;17.40;99.90;;;;;;5034609;28;20041;-82
2023/08/10 06:43:11;;;;;;;7.78;5.88;;;17.40;99.90;;;;;;5034883;28;20049;-82
2023/08/10 06:45:36;;;;;;;10.90;6.25;;;17.40;99.90;;;;;;5033537;28;20068;-82
2023/08/10 06:48:02;;;;;;;7.60;6.20;;;17.50;99.90;;;;;;5034710;28;20028;-82
2023/08/10 06:50:28;;;;;;;8.40;7.05;;;17.50;99.90;;;;;;5034666;28;20048;-82
2023/08/10 06:52:53;;;;;;;7.47;6.40;;;17.40;99.90;;;;;;5033571;28;20037;-82
2023/08/10 06:55:20;;;;;;;7.93;6.82;;;17.50;99.90;;;;;;5034882;28;20029;-82
2023/08/10 06:57:46;;;;;;;12.00;8.18;;;17.50;99.90;;;;;;5034117;28;20061;-82
2023/08/10 07:00:14;;;;;;;9.27;8.38;;;17.50;99.90;;;;;;5033904;28;20026;-82
2023/08/10 07:02:39;;;;;;;14.30;10.27;;;17.50;99.90;;;;;;5033988;28;20040;-82
2023/08/10 07:05:06;;;;;;;10.95;9.48;;;18.00;99.90;;;;;;5034398;28;20025;-81
2023/08/10 07:07:32;;;;;;;10.48;9.20;;;17.50;99.90;;;;;;5033383;28;20021;-81
2023/08/10 07:09:58;;;;;;;13.50;9.52;;;17.70;99.90;;;;;;5034040;28;20492;-82
2023/08/10 07:12:24;;;;;;;12.88;9.45;;;17.50;99.90;;;;;;5033420;28;20033;-81
2023/08/10 07:14:49;;;;;;;15.82;11.13;;;17.50;99.90;;;;;;5033593;28;20022;-81
2023/08/10 07:17:15;;;;;;;12.95;11.30;;;17.60;99.90;;;;;;5034024;28;20091;-81
2023/08/10 07:19:40;;;;;;;16.55;10.70;;;17.60;99.90;;;;;;5033059;28;20025;-81
2023/08/10 07:22:06;;;;;;;13.10;10.45;;;17.00;99.90;;;;;;5033877;28;20116;-81
2023/08/10 07:24:32;;;;;;;15.05;11.82;;;17.60;99.90;;;;;;5033674;28;20029;-81
2023/08/10 07:26:57;;;;;;;14.25;9.88;;;17.60;99.90;;;;;;5032714;28;20029;-81
2023/08/10 07:29:23;;;;;;;16.60;11.20;;;17.60;99.90;;;;;;5033697;28;20072;-81
2023/08/10 07:31:50;;;;;;;18.88;12.93;;;17.70;99.90;;;;;;5033276;28;20809;-81
2023/08/10 07:34:16;;;;;;;10.88;9.75;;;17.70;99.90;;;;;;5033321;28;20099;-81
2023/08/10 07:36:41;;;;;;;13.65;10.95;;;17.70;99.90;;;;;;5033186;28;20477;-81
2023/08/10 07:39:07;;;;;;;14.52;11.80;;;17.80;99.90;;;;;;5033756;28;20028;-81
2023/08/10 07:41:32;;;;;;;15.25;11.52;;;17.80;99.90;;;;;;5032869;28;20070;-81
2023/08/10 07:43:58;;;;;;;14.75;11.35;;;17.90;99.90;;;;;;5033549;28;20108;-81
2023/08/10 07:46:23;;;;;;;14.05;11.68;;;17.90;99.90;;;;;;5033744;28;20025;-81
2023/08/10 07:48:49;;;;;;;16.98;12.45;;;17.90;99.90;;;;;;5032427;28;20026;-81
2023/08/10 07:51:15;;;;;;;15.38;11.18;;;17.80;99.90;;;;;;5033387;28;20045;-81
2023/08/10 07:53:41;;;;;;;15.75;11.90;;;17.90;99.90;;;;;;5033048;28;20022;-81
2023/08/10 07:56:06;;;;;;;13.27;10.18;;;17.90;99.90;;;;;;5032438;28;20065;-81
2023/08/10 07:58:32;;;;;;;15.32;10.13;;;18.50;99.90;;;;;;5033276;28;20104;-81
2023/08/10 08:00:58;;;;;;;13.60;9.65;;;17.90;99.90;;;;;;5033208;28;20029;-81
2023/08/10 08:03:23;;;;;;;12.32;9.38;;;18.00;99.90;;;;;;5032562;28;20075;-81
2023/08/10 08:05:49;;;;;;;18.20;9.75;;;18.10;99.90;;;;;;5032679;28;20032;-81
2023/08/10 08:08:14;;;;;;;18.58;9.63;;;18.10;99.90;;;;;;5033283;28;20101;-81
2023/08/10 08:10:40;;;;;;;11.45;8.32;;;18.20;99.90;;;;;;5032212;28;20107;-81
2023/08/10 08:13:06;;;;;;;16.70;8.80;;;18.10;99.90;;;;;;5033441;28;20030;-81
2023/08/10 08:15:35;;;;;;;15.05;9.10;;;18.10;99.90;;;;;;5032846;28;20091;-81
2023/08/10 08:18:38;;;;;;;18.25;9.15;;;18.20;99.90;;;;;;5033062;28;20025;-81
2023/08/10 08:21:04;;;;;;;16.52;6.72;;;18.10;99.90;;;;;;5032915;28;20045;-81
2023/08/10 08:23:30;;;;;;;12.52;7.03;;;18.10;99.90;;;;;;5032342;28;20113;-81
2023/08/10 08:25:56;;;;;;;7.97;5.60;;;18.10;99.90;;;;;;5032906;28;20448;-81
2023/08/10 08:28:22;;;;;;;8.70;5.20;;;18.20;99.90;;;;;;5033082;28;20099;-81
2023/08/10 08:30:49;;;;;;;6.45;4.10;;;18.20;99.90;;;;;;5031691;28;20030;-81
2023/08/10 08:33:16;;;;;;;10.05;4.90;;;18.40;99.90;;;;;;5032821;28;20026;-81
2023/08/10 08:35:47;;;;;;;4.75;3.80;;;18.20;99.90;;;;;;5032191;28;20049;-81
2023/08/10 08:38:14;;;;;;;4.80;3.67;;;18.20;99.90;;;;;;5031721;28;20140;-81
2023/08/10 08:40:40;;;;;;;3.28;2.50;;;18.20;99.90;;;;;;5032343;28;20116;-81
2023/08/10 08:43:06;;;;;;;4.63;2.45;;;18.20;99.90;;;;;;5032808;28;20071;-81
2023/08/10 08:45:32;;;;;;;5.07;2.03;;;18.20;99.90;;;;;;5031522;28;20022;-81
2023/08/10 08:47:59;;;;;;;3.00;1.98;;;18.20;99.90;;;;;;5032560;28;20072;-81
2023/08/10 08:50:27;;;;;;;5.63;2.22;;;18.20;99.90;;;;;;5032677;28;20067;-81
2023/08/10 08:52:55;;;;;;;12.93;2.33;;;18.20;99.90;;;;;;5031837;28;20029;-81
2023/08/10 08:55:20;;;;;;;3.60;1.65;;;18.20;99.90;;;;;;5032326;28;20104;-81
2023/08/10 08:57:47;;;;;;;4.47;1.80;;;18.30;99.90;;;;;;5031565;28;20121;-80
2023/08/10 09:00:14;;;;;;;2.33;1.65;;;19.10;99.90;;;;;;5032541;28;20049;-81
2023/08/10 09:02:40;;;;;;;3.70;2.08;;;18.30;99.90;;;;;;5032092;28;20021;-81
2023/08/10 09:05:07;;;;;;;4.60;2.20;;;18.30;99.90;;;;;;5031461;28;20504;-81
2023/08/10 09:07:33;;;;;;;7.30;2.30;;;18.30;99.90;;;;;;5031610;28;20131;-81
2023/08/10 09:09:59;;;;;;;7.68;1.85;;;18.80;99.90;;;;;;5032244;28;20097;-81
2023/08/10 09:12:32;;;;;;;5.63;2.75;;;18.40;99.90;;;;;;5031480;28;20436;-81
2023/08/10 09:15:19;;;;;;;2.25;1.58;;;18.40;99.90;;;;;;5031907;28;20109;-81
2023/08/10 09:17:54;;;;;;;2.47;1.88;;;18.40;99.90;;;;;;5031777;28;20026;-83
2023/08/10 09:20:25;;;;;;;4.57;2.20;;;18.40;99.90;;;;;;5031533;28;20052;-81
2023/08/10 09:22:53;;;;;;;8.27;2.20;;;18.50;99.90;;;;;;5031612;28;20036;-80
2023/08/10 09:25:19;;;;;;;4.45;3.15;;;19.10;99.90;;;;;;5032299;28;20132;-81
2023/08/10 09:27:45;;;;;;;4.25;2.20;;;18.60;99.90;;;;;;5030935;28;20032;-82
2023/08/10 09:30:11;;;;;;;3.75;2.10;;;18.60;99.90;;;;;;5031934;28;20075;-81
2023/08/10 09:32:39;;;;;;;3.95;2.03;;;18.60;99.90;;;;;;5031431;28;20424;-82
2023/08/10 09:35:05;;;;;;;3.65;2.05;;;18.40;99.90;;;;;;5030770;28;20051;-82
2023/08/10 09:37:31;;;;;;;4.70;1.90;;;18.60;99.90;;;;;;5031924;28;20047;-82
2023/08/10 09:40:05;;;;;;;4.43;2.08;;;18.60;99.90;;;;;;5031652;28;20025;-82
2023/08/10 09:42:32;;;;;;;14.13;2.67;;;18.60;99.90;;;;;;5031391;28;20406;-82
2023/08/10 09:44:59;;;;;;;5.78;2.30;;;18.70;99.90;;;;;;5031752;28;20026;-82
2023/08/10 09:47:25;;;;;;;5.60;3.25;;;18.90;99.90;;;;;;5031087;28;20026;-82
2023/08/10 09:49:57;;;;;;;3.88;2.40;;;19.30;99.90;;;;;;5032461;28;20025;-82
2023/08/10 09:52:24;;;;;;;4.15;2.40;;;18.70;99.90;;;;;;5035681;28;20045;-82
2023/08/10 09:54:51;;;;;;;2.30;1.88;;;18.70;99.90;;;;;;5035350;28;20030;-82
2023/08/10 09:57:20;;;;;;;7.75;1.67;;;18.90;99.90;;;;;;5035807;28;20473;-81
2023/08/10 09:59:47;;;;;;;9.65;3.35;;;18.80;99.90;;;;;;5035345;28;20064;-82
2023/08/10 10:02:13;;;;;;;3.53;2.45;;;18.80;99.90;;;;;;5034725;28;20082;-82
2023/08/10 10:04:39;;;;;;;2.83;2.00;;;18.90;99.90;;;;;;5035046;28;20056;-82
2023/08/10 10:07:09;;;;;;;3.67;1.60;;;19.10;99.90;;;;;;5035811;28;20489;-82
2023/08/10 10:09:39;;;;;;;1.88;1.63;;;19.00;99.90;;;;;;5034644;28;20072;-82
2023/08/10 10:12:08;;;;;;;3.35;2.15;;;18.90;99.90;;;;;;5035481;28;20037;-82
2023/08/10 10:14:44;;;;;;;6.65;2.30;;;19.00;99.90;;;;;;5035137;28;20025;-82
2023/08/10 10:17:12;;;;;;;3.13;1.85;;;19.10;99.90;;;;;;5034491;28;20029;-82
2023/08/10 10:19:38;;;;;;;6.25;2.97;;;19.00;99.90;;;;;;5035041;28;20044;-82
2023/08/10 10:22:05;;;;;;;7.47;2.22;;;19.00;99.90;;;;;;5035189;28;20349;-82
2023/08/10 10:24:33;;;;;;;4.70;2.33;;;19.10;99.90;;;;;;5034167;28;20122;-82
2023/08/10 10:27:02;;;;;;;3.65;2.17;;;19.10;99.90;;;;;;5034758;28;20366;-82
2023/08/10 10:29:40;;;;;;;1.98;1.52;;;19.10;99.90;;;;;;5034320;28;20025;-82
2023/08/10 10:32:18;;;;;;;6.07;2.38;;;19.20;99.90;;;;;;5035158;28;20057;-82
2023/08/10 10:34:45;;;;;;;4.53;2.47;;;19.20;99.90;;;;;;5034328;28;20385;-82
2023/08/10 10:37:29;;;;;;;4.93;2.80;;;19.30;99.90;;;;;;5034268;28;20044;-82
2023/08/10 10:40:18;;;;;;;3.80;2.35;;;19.30;99.90;;;;;;5034838;28;20029;-82
2023/08/10 10:43:06;;;;;;;4.28;2.30;;;19.40;99.90;;;;;;5034747;28;20049;-82
2023/08/10 10:45:36;;;;;;;5.28;2.25;;;19.40;99.90;;;;;;5033892;28;20021;-82
2023/08/10 10:48:03;;;;;;;2.67;2.20;;;19.40;99.90;;;;;;5034884;28;20385;-82
2023/08/10 10:50:30;;;;;;;4.25;2.42;;;19.50;99.90;;;;;;5033899;28;20036;-82
2023/08/10 10:52:58;;;;;;;4.70;2.97;;;19.50;99.90;;;;;;5034786;28;20033;-82
2023/08/10 10:55:34;;;;;;;4.47;2.60;;;19.60;99.90;;;;;;5034843;28;20033;-82
2023/08/10 10:58:02;;;;;;;3.30;2.65;;;19.60;99.90;;;;;;5034029;28;20091;-82
2023/08/10 11:00:28;;;;;;;2.90;2.38;;;19.60;99.90;;;;;;5034468;28;20052;-82
2023/08/10 11:02:54;;;;;;;6.50;2.92;;;19.70;99.90;;;;;;5033699;28;20037;-82
2023/08/10 11:05:22;;;;;;;3.05;2.50;;;19.80;99.90;;;;;;5033743;28;20100;-82
2023/08/10 11:07:50;;;;;;;5.47;3.10;;;19.80;99.90;;;;;;5034304;28;20095;-82
2023/08/10 11:10:17;;;;;;;3.50;2.42;;;19.80;99.90;;;;;;5034506;28;20021;-82
2023/08/10 11:12:44;;;;;;;2.63;2.40;;;19.80;99.90;;;;;;5033373;28;20507;-82
2023/08/10 11:15:12;;;;;;;6.95;3.17;;;20.00;99.90;;;;;;5034235;28;20029;-82
2023/08/10 11:17:46;;;;;;;3.50;2.30;;;20.00;99.90;;;;;;5033811;28;20544;-82
2023/08/10 11:20:14;;;;;;;5.03;2.70;;;20.00;99.90;;;;;;5033283;28;20469;-82
2023/08/10 11:22:51;;;;;;;7.97;3.75;;;20.00;99.90;;;;;;5033654;28;20450;-82
2023/08/10 11:25:19;;;;;;;3.35;2.90;;;20.00;99.90;;;;;;5034080;28;20018;-82
2023/08/10 11:27:47;;;;;;;8.43;4.03;;;20.10;99.90;;;;;;5033135;28;20029;-82
2023/08/10 11:30:15;;;;;;;6.15;2.88;;;20.10;99.90;;;;;;5033854;28;20037;-82
2023/08/10 11:32:42;;;;;;;4.85;3.17;;;20.10;99.90;;;;;;5033127;28;20021;-82
2023/08/10 11:35:09;;;;;;;3.55;2.58;;;20.20;99.90;;;;;;5033804;28;20433;-82
2023/08/10 11:37:37;;;;;;;6.57;2.75;;;20.30;99.90;;;;;;5033645;28;20021;-83
2023/08/10 11:40:13;;;;;;;5.60;3.10;;;20.30;99.90;;;;;;5033000;28;20022;-82
2023/08/10 11:42:43;;;;;;;4.32;2.67;;;20.30;99.90;;;;;;5033229;28;20038;-82
2023/08/10 11:45:19;;;;;;;4.68;2.45;;;20.30;99.90;;;;;;5033812;28;20084;-82
2023/08/10 11:47:46;;;;;;;6.03;2.65;;;20.30;99.90;;;;;;5032633;28;20037;-82
2023/08/10 11:50:14;;;;;;;4.93;3.17;;;20.30;99.90;;;;;;5033483;28;20055;-82
2023/08/10 11:52:40;;;;;;;3.20;2.65;;;20.30;99.90;;;;;;5033326;28;20469;-82
2023/08/10 11:55:12;;;;;;;3.65;2.70;;;20.50;99.90;;;;;;5032751;28;20030;-82
2023/08/10 11:57:44;;;;;;;5.63;2.25;;;20.50;99.90;;;;;;5033270;28;20083;-82
2023/08/10 12:00:30;;;;;;;5.25;2.65;;;20.50;99.90;;;;;;5033463;28;20025;-82
2023/08/10 12:03:01;;;;;;;3.13;2.30;;;20.60;99.90;;;;;;5032653;28;20116;-82
2023/08/10 12:05:38;;;;;;;4.38;2.70;;;20.60;99.90;;;;;;5033681;28;20026;-82
2023/08/10 12:08:06;;;;;;;3.30;2.17;;;20.60;99.90;;;;;;5032925;28;20029;-82
2023/08/10 12:10:43;;;;;;;3.20;2.70;;;20.70;99.90;;;;;;5033512;28;20087;-82
2023/08/10 12:13:14;;;;;;;3.53;2.88;;;20.70;99.90;;;;;;5032389;28;20044;-83
2023/08/10 12:15:46;;;;;;;3.72;2.60;;;20.70;99.90;;;;;;5031580;28;20116;-82
2023/08/10 12:18:19;;;;;;;3.15;2.20;;;20.80;99.90;;;;;;5033438;28;20112;-82
2023/08/10 12:20:47;;;;;;;4.30;2.22;;;20.80;99.90;;;;;;5032776;28;20607;-82
2023/08/10 12:23:14;;;;;;;3.67;2.75;;;20.80;99.90;;;;;;5032238;28;20036;-82
2023/08/10 12:25:40;;;;;;;2.30;2.10;;;21.20;99.90;;;;;;5032403;28;20080;-82
2023/08/10 12:28:07;;;;;;;4.18;2.53;;;20.90;99.90;;;;;;5032808;28;20071;-83
2023/08/10 12:30:34;;;;;;;3.00;2.65;;;20.90;99.90;;;;;;5031630;28;20029;-82
2023/08/10 12:33:00;;;;;;;2.92;2.70;;;20.90;99.90;;;;;;5032709;28;20031;-82
2023/08/10 12:35:26;;;;;;;4.00;2.42;;;21.00;99.90;;;;;;5032724;28;20046;-82
2023/08/10 12:37:52;;;;;;;5.22;3.22;;;21.00;99.90;;;;;;5031572;28;20025;-82
2023/08/10 12:40:17;;;;;;;3.25;2.95;;;21.10;99.90;;;;;;5032620;28;20477;-82
2023/08/10 12:42:44;;;;;;;3.22;2.92;;;21.20;99.90;;;;;;5032249;28;20029;-82
2023/08/10 12:45:11;;;;;;;2.78;2.55;;;21.20;99.90;;;;;;5031935;28;20100;-82